Time;durP1;ratioP1;P1;durP2;ratioP2;P2;SDS_P1;SDS_P2;PMS_P1;PMS_P2;Temp;Humidity;BMP_temperature;BMP_pressure;BME280_temperature;BME280_humidity;BME280_pressure;Samples;Min_cycle;Max_cycle;Signal;HPM_P1;HPM_P2
2021/10/30 00:01:13;;;;;;;20.10;15.00;;;;;;;7.60;75.86;95106.08;833431;71;28850;-78
2021/10/30 00:16:22;;;;;;;22.50;17.37;;;;;;;7.85;76.18;95104.62;827052;71;32221;-76
2021/10/30 00:31:15;;;;;;;27.13;17.62;;;;;;;8.01;76.62;95086.16;820468;71;28790;-77
2021/10/30 00:46:17;;;;;;;22.17;16.93;;;;;;;8.03;76.57;95083.30;833192;71;32032;-78
2021/10/30 01:01:20;;;;;;;27.58;19.07;;;;;;;7.88;77.71;95081.39;833506;71;31761;-79
2021/10/30 01:16:13;;;;;;;24.80;18.10;;;;;;;7.83;78.83;95075.64;827564;71;29257;-79
2021/10/30 01:31:20;;;;;;;27.20;18.32;;;;;;;7.75;79.83;95064.38;833469;71;31371;-77
2021/10/30 01:46:18;;;;;;;23.32;17.40;;;;;;;7.79;79.97;95062.82;827003;71;31703;-78
2021/10/30 02:01:11;;;;;;;28.67;20.23;;;;;;;7.63;80.70;95065.88;827453;71;30434;-77
2021/10/30 02:17:00;;;;;;;25.25;18.42;;;;;;;7.70;80.41;95068.78;798694;71;32925;-78
2021/10/30 02:31:08;;;;;;;20.70;15.75;;;;;;;7.77;79.11;95071.44;827749;71;29532;-79
2021/10/30 02:46:11;;;;;;;22.52;15.23;;;;;;;7.82;78.31;95072.75;827280;71;29703;-76
2021/10/30 03:16:35;;;;;;;20.05;14.90;;;;;;;7.74;78.49;95070.63;837924;70;33305;-77
2021/10/30 03:31:20;;;;;;;19.75;14.87;;;;;;;7.81;78.08;95067.80;833396;71;32768;-77
2021/10/30 03:46:29;;;;;;;22.62;15.72;;;;;;;7.85;78.00;95075.39;833305;71;32896;-78
2021/10/30 04:01:42;;;;;;;19.27;15.15;;;;;;;7.71;78.97;95082.12;794410;74;32827;-79
2021/10/30 04:16:18;;;;;;;21.95;14.47;;;;;;;7.53;79.42;95074.97;833264;71;32735;-76
2021/10/30 04:31:41;;;;;;;20.08;15.13;;;;;;;7.42;80.14;95068.92;793247;74;33156;-76
2021/10/30 04:46:19;;;;;;;21.23;15.18;;;;;;;7.22;81.16;95069.58;827254;71;32808;-77
2021/10/30 05:01:44;;;;;;;21.90;16.90;;;;;;;7.02;82.61;95075.45;785816;75;32966;-76
2021/10/30 05:16:10;;;;;;;23.55;16.97;;;;;;;6.90;83.27;95081.36;822770;71;28404;-76
2021/10/30 05:31:16;;;;;;;23.18;16.77;;;;;;;7.37;81.84;95079.32;818580;71;32819;-77
2021/10/30 05:46:32;;;;;;;20.92;16.05;;;;;;;9.15;74.41;95073.50;833449;71;33282;-77
2021/10/30 06:01:12;;;;;;;18.20;13.85;;;;;;;9.62;69.32;95066.34;827897;71;30258;-77
2021/10/30 06:16:11;;;;;;;14.45;12.28;;;;;;;9.49;68.32;95074.73;828514;71;30297;-77
2021/10/30 06:31:43;;;;;;;14.45;12.82;;;;;;;10.04;66.39;95084.80;771517;75;33885;-78
2021/10/30 06:46:28;;;;;;;12.45;10.85;;;;;;;;;;821749;71;32687;-76
2021/10/30 07:01:35;;;;;;;11.33;9.80;;;;;;;11.20;61.51;95094.82;820100;71;33222;-76
2021/10/30 07:16:44;;;;;;;11.18;10.00;;;;;;;11.55;60.13;95082.94;828414;71;32914;-79
2021/10/30 07:31:18;;;;;;;18.80;12.82;;;;;;;12.10;59.83;95071.55;828419;71;32771;-81
2021/10/30 07:46:15;;;;;;;14.83;10.82;;;;;;;12.79;57.63;95091.70;824860;71;30465;-77
2021/10/30 08:01:41;;;;;;;11.65;10.20;;;;;;;13.56;55.36;95077.80;817095;71;32854;-79
2021/10/30 08:16:59;;;;;;;;;;;;;;;;;;;;;
2021/10/30 09:16:30;;;;;;;14.05;10.00;;;;;;;13.94;49.87;95017.72;833898;71;30640;-80
2021/10/30 09:46:58;;;;;;;14.40;11.12;;;;;;;14.80;47.02;94983.09;833321;71;32817;-76
2021/10/30 10:01:21;;;;;;;13.05;10.53;;;;;;;15.00;46.35;94965.44;827586;71;31681;-79
2021/10/30 10:16:29;;;;;;;12.70;10.35;;;;;;;15.06;45.93;94954.16;834269;71;32878;-86
2021/10/30 10:46:24;;;;;;;11.75;9.38;;;;;;;15.06;45.29;94930.92;832498;71;32919;-79
2021/10/30 11:01:19;;;;;;;10.48;9.13;;;;;;;14.90;45.59;94901.47;834083;71;30660;-80
2021/10/30 11:16:42;;;;;;;11.48;8.60;;;;;;;15.39;43.62;94887.73;818193;71;32932;-80
2021/10/30 11:46:46;;;;;;;11.73;9.60;;;;;;;15.49;44.21;94822.65;833722;71;32810;-81
2021/10/30 12:31:37;;;;;;;7.90;7.10;;;;;;;15.12;43.52;94858.34;826682;71;32893;-82
2021/10/30 13:46:23;;;;;;;4.83;4.42;;;;;;;14.27;40.87;94858.41;829772;71;32702;-79
2021/10/30 14:01:20;;;;;;;7.08;5.30;;;;;;;13.91;41.90;94850.01;828712;71;31458;-83
2021/10/30 14:16:22;;;;;;;5.40;4.90;;;;;;;13.53;43.75;94839.80;833904;71;33232;-80
2021/10/30 14:31:15;;;;;;;6.40;5.80;;;;;;;12.90;44.09;94799.96;828371;71;30243;-83
2021/10/30 14:46:38;;;;;;;8.45;7.15;;;;;;;12.76;47.31;94850.53;824917;71;32896;-82
2021/10/30 16:01:52;;;;;;;9.65;7.50;;;;;;;11.07;57.30;94915.59;806132;72;32784;-79
2021/10/30 16:17:02;;;;;;;9.25;8.18;;;;;;;10.89;57.88;94922.84;839293;69;32731;-82
2021/10/30 16:46:36;;;;;;;9.28;7.28;;;;;;;10.75;60.49;94932.70;825763;71;32737;-80
2021/10/30 17:01:13;;;;;;;8.05;7.05;;;;;;;10.62;59.97;94965.64;827640;71;31437;-77
2021/10/30 17:16:43;;;;;;;9.85;8.15;;;;;;;10.52;60.10;94974.91;802109;74;32977;-81
2021/10/30 17:31:26;;;;;;;13.50;8.88;;;;;;;10.49;60.64;94979.91;834001;71;32974;-80
2021/10/30 18:01:23;;;;;;;9.35;8.40;;;;;;;9.97;60.92;94984.14;827056;71;33223;-80
2021/10/30 18:31:54;;;;;;;10.35;9.35;;;;;;;10.01;62.45;95007.98;812991;72;32778;-78
2021/10/30 18:46:25;;;;;;;12.82;9.68;;;;;;;9.94;62.67;95014.84;827703;71;32723;-77
2021/10/30 19:01:18;;;;;;;12.85;10.78;;;;;;;9.81;63.57;95022.78;833804;71;31971;-78
2021/10/30 19:16:10;;;;;;;14.68;10.50;;;;;;;9.56;65.21;95028.11;827828;71;29373;-81
2021/10/30 19:31:19;;;;;;;10.90;9.58;;;;;;;9.41;66.09;95038.89;832441;71;32799;-79
2021/10/30 19:46:20;;;;;;;20.15;11.78;;;;;;;9.25;67.65;95057.00;819835;71;32936;-78
2021/10/30 20:01:11;;;;;;;14.75;11.55;;;;;;;8.92;68.93;95043.94;827589;71;29581;-78
2021/10/30 20:16:36;;;;;;;18.92;13.65;;;;;;;8.79;68.96;95039.50;832188;71;32828;-79
2021/10/30 20:31:10;;;;;;;15.85;12.00;;;;;;;8.70;69.24;95049.43;833956;71;30426;-76
2021/10/30 20:46:09;;;;;;;17.77;14.18;;;;;;;8.52;70.01;95032.45;827770;71;30188;-78
2021/10/30 21:16:30;;;;;;;19.25;14.60;;;;;;;8.19;71.88;95023.98;831107;71;33179;-80
2021/10/30 21:31:14;;;;;;;21.82;14.10;;;;;;;8.18;72.01;95010.67;823087;71;32974;-77
2021/10/30 21:46:20;;;;;;;24.20;14.38;;;;;;;8.03;72.86;95004.90;833416;71;32729;-78
2021/10/30 22:01:28;;;;;;;20.37;15.18;;;;;;;7.94;73.41;95002.52;833344;71;32818;-78
2021/10/30 22:16:16;;;;;;;19.07;14.35;;;;;;;8.14;72.73;95005.70;833479;71;32763;-78
2021/10/30 22:31:15;;;;;;;24.52;16.67;;;;;;;8.39;70.10;95006.23;828023;71;32114;-77
2021/10/30 22:46:08;;;;;;;19.23;14.03;;;;;;;8.37;68.44;95003.91;834556;71;29427;-79
2021/10/30 23:01:11;;;;;;;21.33;16.10;;;;;;;8.30;67.64;95005.98;827454;71;30644;-76
2021/10/30 23:16:12;;;;;;;20.62;15.25;;;;;;;8.17;67.44;95002.55;827748;71;29763;-79
2021/10/30 23:31:17;;;;;;;16.55;12.80;;;;;;;8.06;67.45;95003.06;827400;71;33250;-79
2021/10/30 23:46:11;;;;;;;17.77;12.25;;;;;;;7.99;67.57;95002.02;828415;71;29812;-78
